createdAt,value
2022-10-30T00:00:18.202Z,100.00
2022-10-30T00:02:20.473Z,100.00
2022-10-30T00:04:22.648Z,100.00
2022-10-30T00:06:24.621Z,100.00
2022-10-30T00:08:28.797Z,100.00
2022-10-30T00:10:31.046Z,100.00
2022-10-30T00:12:33.072Z,100.00
2022-10-30T00:14:37.640Z,100.00
2022-10-30T00:16:39.788Z,100.00
2022-10-30T00:18:41.852Z,100.00
2022-10-30T00:20:47.608Z,100.00
2022-10-30T00:22:50.257Z,100.00
2022-10-30T00:24:53.741Z,100.00
2022-10-30T00:27:02.244Z,100.00
2022-10-30T00:29:07.064Z,100.00
2022-10-30T00:31:09.947Z,100.00
2022-10-30T00:33:15.628Z,100.00
2022-10-30T00:35:35.930Z,100.00
2022-10-30T00:37:40.537Z,100.00
2022-10-30T00:39:50.585Z,100.00
2022-10-30T00:41:54.775Z,100.00
2022-10-30T00:43:59.307Z,100.00
2022-10-30T00:46:33.321Z,100.00
2022-10-30T00:48:36.048Z,100.00
2022-10-30T00:50:38.447Z,100.00
2022-10-30T00:52:55.153Z,100.00
2022-10-30T00:55:06.724Z,100.00
2022-10-30T00:57:10.281Z,100.00
2022-10-30T00:59:25.450Z,100.00
2022-10-30T01:01:36.619Z,100.00
2022-10-30T01:03:46.145Z,100.00
2022-10-30T01:05:53.642Z,100.00
2022-10-30T01:07:56.099Z,100.00
2022-10-30T01:09:58.975Z,100.00
2022-10-30T01:12:04.364Z,100.00
2022-10-30T01:14:11.347Z,100.00
2022-10-30T01:16:25.244Z,100.00
2022-10-30T01:19:26.259Z,100.00
2022-10-30T01:22:01.540Z,100.00
2022-10-30T01:24:25.607Z,100.00
2022-10-30T01:27:04.987Z,100.00
2022-10-30T01:29:32.542Z,100.00
2022-10-30T01:31:50.294Z,100.00
2022-10-30T01:34:07.249Z,100.00
2022-10-30T01:36:29.309Z,100.00
2022-10-30T01:38:49.705Z,100.00
2022-10-30T01:40:55.111Z,100.00
2022-10-30T01:43:10.528Z,100.00
2022-10-30T01:45:27.521Z,100.00
2022-10-30T01:47:37.915Z,100.00
2022-10-30T01:50:18.557Z,100.00
2022-10-30T01:52:42.607Z,100.00
2022-10-30T01:55:04.561Z,100.00
2022-10-30T01:57:16.794Z,100.00
2022-10-30T01:59:32.715Z,100.00
2022-10-30T02:01:41.861Z,100.00
2022-10-30T02:03:52.304Z,100.00
2022-10-30T02:05:55.181Z,100.00
2022-10-30T02:07:57.748Z,100.00
2022-10-30T02:10:03.330Z,100.00
2022-10-30T02:12:09.462Z,100.00
2022-10-30T02:14:27.053Z,100.00
2022-10-30T02:16:29.068Z,100.00
2022-10-30T02:18:31.173Z,100.00
2022-10-30T02:20:33.722Z,100.00
2022-10-30T02:22:44.962Z,100.00
2022-10-30T02:24:56.014Z,100.00
2022-10-30T02:27:05.328Z,100.00
2022-10-30T02:29:10.625Z,100.00
2022-10-30T02:31:13.008Z,100.00
2022-10-30T02:35:23.334Z,100.00
2022-10-30T02:37:34.374Z,100.00
2022-10-30T02:39:53.913Z,100.00
2022-10-30T02:41:56.404Z,100.00
2022-10-30T02:43:58.910Z,100.00
2022-10-30T02:46:04.198Z,100.00
2022-10-30T02:48:08.203Z,100.00
2022-10-30T02:50:11.176Z,100.00
2022-10-30T02:52:19.079Z,100.00
2022-10-30T02:54:27.098Z,100.00
2022-10-30T02:58:52.299Z,100.00
2022-10-30T03:00:57.711Z,100.00
2022-10-30T03:02:59.914Z,100.00
2022-10-30T03:05:05.036Z,100.00
2022-10-30T03:07:08.342Z,100.00
2022-10-30T03:09:18.823Z,100.00
2022-10-30T03:11:24.213Z,100.00
2022-10-30T03:13:26.426Z,100.00
2022-10-30T03:15:29.032Z,100.00
2022-10-30T03:17:33.422Z,100.00
2022-10-30T03:19:35.549Z,100.00
2022-10-30T03:21:37.819Z,100.00
2022-10-30T03:23:40.092Z,100.00
2022-10-30T03:25:42.349Z,100.00
2022-10-30T03:27:44.387Z,100.00
2022-10-30T03:29:54.876Z,100.00
2022-10-30T03:31:56.917Z,100.00
2022-10-30T03:33:59.423Z,100.00
2022-10-30T03:36:01.932Z,100.00
2022-10-30T03:38:03.781Z,100.00
2022-10-30T03:40:06.293Z,100.00
2022-10-30T03:42:08.180Z,100.00
2022-10-30T03:44:10.154Z,100.00
2022-10-30T03:46:15.567Z,100.00
2022-10-30T03:48:19.799Z,100.00
2022-10-30T03:50:21.800Z,100.00
2022-10-30T03:52:23.776Z,100.00
2022-10-30T03:54:25.886Z,100.00
2022-10-30T03:56:27.789Z,100.00
2022-10-30T03:58:30.487Z,100.00
2022-10-30T04:00:33.265Z,100.00
2022-10-30T04:02:35.268Z,100.00
2022-10-30T04:04:37.083Z,100.00
2022-10-30T04:06:39.068Z,100.00
2022-10-30T04:08:41.257Z,100.00
2022-10-30T04:10:47.114Z,100.00
2022-10-30T04:12:49.130Z,100.00
2022-10-30T04:14:51.206Z,100.00
2022-10-30T04:16:54.443Z,100.00
2022-10-30T04:18:56.267Z,100.00
2022-10-30T04:21:00.467Z,100.00
2022-10-30T04:23:05.452Z,100.00
2022-10-30T04:25:08.023Z,100.00
2022-10-30T04:27:09.836Z,100.00
2022-10-30T04:29:12.980Z,100.00
2022-10-30T04:31:16.305Z,100.00
2022-10-30T04:33:22.694Z,100.00
2022-10-30T04:35:26.778Z,100.00
2022-10-30T04:37:28.925Z,100.00
2022-10-30T04:39:30.980Z,100.00
2022-10-30T04:41:32.964Z,100.00
2022-10-30T04:43:35.358Z,100.00
2022-10-30T04:45:38.100Z,100.00
2022-10-30T04:47:40.869Z,100.00
2022-10-30T04:49:47.541Z,100.00
2022-10-30T04:51:49.339Z,100.00
2022-10-30T04:53:51.582Z,100.00
2022-10-30T04:55:54.962Z,100.00
2022-10-30T04:57:59.103Z,100.00
2022-10-30T05:00:01.480Z,100.00
2022-10-30T05:02:04.065Z,100.00
2022-10-30T05:04:08.697Z,100.00
2022-10-30T05:06:25.505Z,100.00
2022-10-30T05:08:27.861Z,100.00
2022-10-30T05:10:29.917Z,100.00
2022-10-30T05:12:34.304Z,100.00
2022-10-30T05:14:39.841Z,100.00
2022-10-30T05:16:42.028Z,100.00
2022-10-30T05:18:44.155Z,100.00
2022-10-30T05:20:47.398Z,100.00
2022-10-30T05:22:59.095Z,100.00
2022-10-30T05:25:10.486Z,100.00
2022-10-30T05:27:13.562Z,100.00
2022-10-30T05:29:15.548Z,100.00
2022-10-30T05:31:17.626Z,100.00
2022-10-30T05:33:23.613Z,100.00
2022-10-30T05:35:26.411Z,100.00
2022-10-30T05:37:30.103Z,100.00
2022-10-30T05:39:31.773Z,100.00
2022-10-30T05:41:34.195Z,100.00
2022-10-30T05:43:36.374Z,100.00
2022-10-30T05:45:38.916Z,100.00
2022-10-30T05:47:41.264Z,100.00
2022-10-30T05:49:43.387Z,100.00
2022-10-30T05:51:48.624Z,100.00
2022-10-30T05:53:53.598Z,100.00
2022-10-30T05:55:59.473Z,100.00
2022-10-30T05:58:06.423Z,100.00
2022-10-30T06:00:12.069Z,100.00
2022-10-30T06:02:14.251Z,100.00
2022-10-30T06:04:19.094Z,100.00
2022-10-30T06:06:31.708Z,100.00
2022-10-30T06:08:36.734Z,100.00
2022-10-30T06:10:38.956Z,100.00
2022-10-30T06:12:41.309Z,100.00
2022-10-30T06:14:50.823Z,100.00
2022-10-30T06:16:52.723Z,100.00
2022-10-30T06:18:54.900Z,100.00
2022-10-30T06:20:56.995Z,100.00
2022-10-30T06:23:08.056Z,100.00
2022-10-30T06:25:10.188Z,100.00
2022-10-30T06:27:12.159Z,100.00
2022-10-30T06:29:14.129Z,100.00
2022-10-30T06:31:16.345Z,100.00
2022-10-30T06:33:18.354Z,100.00
2022-10-30T06:35:27.195Z,100.00
2022-10-30T06:37:48.390Z,100.00
2022-10-30T06:40:00.594Z,100.00
2022-10-30T06:42:02.441Z,100.00
2022-10-30T06:44:04.527Z,100.00
2022-10-30T06:46:09.315Z,100.00
2022-10-30T06:48:11.197Z,100.00
2022-10-30T06:50:15.757Z,100.00
2022-10-30T06:52:17.720Z,100.00
2022-10-30T06:54:19.619Z,100.00
2022-10-30T06:56:21.513Z,100.00
2022-10-30T06:58:24.046Z,100.00
2022-10-30T07:00:26.148Z,100.00
2022-10-30T07:02:28.185Z,100.00
2022-10-30T07:04:30.254Z,100.00
2022-10-30T07:06:32.149Z,100.00
2022-10-30T07:08:34.091Z,100.00
2022-10-30T07:10:35.986Z,100.00
2022-10-30T07:12:37.846Z,100.00
2022-10-30T07:14:40.026Z,100.00
2022-10-30T07:16:42.086Z,100.00
2022-10-30T07:18:44.000Z,100.00
2022-10-30T07:20:46.073Z,100.00
2022-10-30T07:22:48.086Z,100.00
2022-10-30T07:24:50.024Z,100.00
2022-10-30T07:26:52.154Z,100.00
2022-10-30T07:28:54.214Z,100.00
2022-10-30T07:30:56.156Z,100.00
2022-10-30T07:33:00.587Z,100.00
2022-10-30T07:35:02.813Z,100.00
2022-10-30T07:37:04.930Z,100.00
2022-10-30T07:39:06.804Z,100.00
2022-10-30T07:41:08.815Z,100.00
2022-10-30T07:43:13.990Z,100.00
2022-10-30T07:45:16.549Z,100.00
2022-10-30T07:50:16.731Z,100.00
2022-10-30T07:52:21.615Z,100.00
2022-10-30T07:54:23.753Z,100.00
2022-10-30T07:56:30.482Z,100.00
2022-10-30T07:58:45.094Z,100.00
2022-10-30T08:00:47.503Z,100.00
2022-10-30T08:03:02.627Z,100.00
2022-10-30T08:05:05.520Z,100.00
2022-10-30T08:07:15.474Z,100.00
2022-10-30T08:09:29.441Z,100.00
2022-10-30T08:11:34.244Z,100.00
2022-10-30T08:14:23.343Z,100.00
2022-10-30T08:16:53.415Z,100.00
2022-10-30T08:19:07.013Z,100.00
2022-10-30T08:21:09.358Z,100.00
2022-10-30T08:23:19.247Z,100.00
2022-10-30T08:25:26.902Z,100.00
2022-10-30T08:27:29.340Z,100.00
2022-10-30T08:29:31.437Z,100.00
2022-10-30T08:31:36.538Z,100.00
2022-10-30T08:33:38.622Z,100.00
2022-10-30T08:35:48.280Z,100.00
2022-10-30T08:37:50.191Z,100.00
2022-10-30T08:39:52.251Z,100.00
2022-10-30T08:41:54.231Z,100.00
2022-10-30T08:43:56.544Z,100.00
2022-10-30T08:46:16.012Z,100.00
2022-10-30T08:48:21.011Z,100.00
2022-10-30T08:50:23.321Z,100.00
2022-10-30T08:52:25.436Z,100.00
2022-10-30T08:54:27.435Z,100.00
2022-10-30T08:56:29.493Z,100.00
2022-10-30T08:58:34.217Z,100.00
2022-10-30T09:00:52.545Z,100.00
2022-10-30T09:02:57.571Z,100.00
2022-10-30T09:05:03.397Z,100.00
2022-10-30T09:07:14.065Z,100.00
2022-10-30T09:09:20.196Z,100.00
2022-10-30T09:11:22.297Z,100.00
2022-10-30T09:13:46.788Z,100.00
2022-10-30T09:15:54.708Z,100.00
2022-10-30T09:18:20.534Z,100.00
2022-10-30T09:20:29.788Z,100.00
2022-10-30T09:22:31.986Z,100.00
2022-10-30T09:24:42.768Z,100.00
2022-10-30T09:26:44.717Z,100.00
2022-10-30T09:28:48.357Z,100.00
2022-10-30T09:30:52.588Z,100.00
2022-10-30T09:32:59.181Z,100.00
2022-10-30T09:35:04.976Z,100.00
2022-10-30T09:37:07.137Z,100.00
2022-10-30T09:39:09.039Z,100.00
2022-10-30T09:41:41.043Z,100.00
2022-10-30T09:44:04.571Z,100.00
2022-10-30T09:46:37.360Z,100.00
2022-10-30T09:49:19.534Z,100.00
2022-10-30T09:51:55.762Z,100.00
2022-10-30T09:54:06.150Z,100.00
2022-10-30T09:56:24.792Z,100.00
2022-10-30T09:58:47.364Z,100.00
2022-10-30T10:01:07.823Z,100.00
2022-10-30T10:03:25.112Z,100.00
2022-10-30T10:05:54.475Z,100.00
2022-10-30T10:08:04.336Z,100.00
2022-10-30T10:10:17.935Z,100.00
2022-10-30T10:13:03.933Z,100.00
2022-10-30T10:15:23.690Z,100.00
2022-10-30T10:17:39.060Z,100.00
2022-10-30T10:20:05.522Z,100.00
2022-10-30T10:22:26.040Z,100.00
2022-10-30T10:24:33.265Z,100.00
2022-10-30T10:26:58.597Z,100.00
2022-10-30T10:29:26.638Z,100.00
2022-10-30T10:31:55.547Z,100.00
2022-10-30T10:34:24.076Z,100.00
2022-10-30T10:36:41.384Z,100.00
2022-10-30T10:38:59.516Z,100.00
2022-10-30T10:41:35.271Z,100.00
2022-10-30T10:43:43.449Z,100.00
2022-10-30T10:45:53.371Z,100.00
2022-10-30T10:48:25.624Z,100.00
2022-10-30T10:51:16.205Z,100.00
2022-10-30T10:53:31.031Z,100.00
2022-10-30T10:55:35.747Z,100.00
2022-10-30T10:57:46.520Z,100.00
2022-10-30T10:59:56.586Z,100.00
2022-10-30T11:02:24.797Z,100.00
2022-10-30T11:04:33.650Z,100.00
2022-10-30T11:06:41.388Z,100.00
2022-10-30T11:08:43.251Z,100.00
2022-10-30T11:10:49.824Z,100.00
2022-10-30T11:12:52.285Z,99.89
2022-10-30T11:14:54.113Z,99.98
2022-10-30T11:17:24.722Z,94.93
2022-10-30T11:19:30.109Z,96.64
2022-10-30T11:21:38.444Z,97.62
2022-10-30T11:23:48.748Z,95.74
2022-10-30T11:25:53.704Z,94.99
2022-10-30T11:27:59.374Z,97.62
2022-10-30T11:30:04.511Z,96.06
2022-10-30T11:32:06.562Z,99.96
2022-10-30T11:34:35.831Z,96.62
2022-10-30T11:36:38.181Z,98.14
2022-10-30T11:38:42.972Z,98.55
2022-10-30T11:40:48.805Z,98.08
2022-10-30T11:42:59.368Z,98.17
2022-10-30T11:45:01.593Z,98.53
2022-10-30T11:47:04.984Z,97.60
2022-10-30T11:49:07.256Z,97.97
2022-10-30T11:51:09.510Z,97.13
2022-10-30T11:53:20.320Z,95.83
2022-10-30T11:55:55.805Z,97.14
2022-10-30T11:57:59.417Z,99.83
2022-10-30T12:00:06.039Z,93.90
2022-10-30T12:02:32.191Z,93.66
2022-10-30T12:04:39.562Z,99.63
2022-10-30T12:06:41.771Z,94.87
2022-10-30T12:09:12.939Z,92.07
2022-10-30T12:11:14.857Z,91.54
2022-10-30T12:13:29.062Z,92.69
2022-10-30T12:15:36.700Z,92.52
2022-10-30T12:17:42.027Z,92.65
2022-10-30T12:19:55.506Z,91.35
2022-10-30T12:22:01.692Z,92.88
2022-10-30T12:24:15.053Z,96.60
2022-10-30T12:26:19.671Z,92.55
2022-10-30T12:28:27.575Z,93.18
2022-10-30T12:30:37.774Z,91.83
2022-10-30T12:33:22.799Z,91.30
2022-10-30T12:35:33.597Z,94.82
2022-10-30T12:37:42.280Z,94.05
2022-10-30T12:40:02.023Z,90.96
2022-10-30T12:42:24.412Z,92.30
2022-10-30T12:44:38.117Z,93.34
2022-10-30T12:46:50.795Z,92.49
2022-10-30T12:49:02.303Z,91.19
2022-10-30T12:51:41.712Z,94.61
2022-10-30T12:53:57.968Z,91.18
2022-10-30T12:56:07.035Z,94.07
2022-10-30T12:58:33.127Z,95.26
2022-10-30T13:00:48.443Z,96.38
2022-10-30T13:03:11.714Z,93.68
2022-10-30T13:05:40.478Z,93.59
2022-10-30T13:07:50.235Z,95.02
2022-10-30T13:10:23.091Z,95.19
2022-10-30T13:12:34.915Z,94.80
2022-10-30T13:14:45.045Z,93.50
2022-10-30T13:16:47.318Z,93.94
2022-10-30T13:18:51.700Z,93.50
2022-10-30T13:21:12.684Z,94.28
2022-10-30T13:23:28.263Z,94.91
2022-10-30T13:25:52.914Z,94.45
2022-10-30T13:28:28.727Z,98.43
2022-10-30T13:30:37.950Z,99.23
2022-10-30T13:33:01.905Z,100.00
2022-10-30T13:35:28.896Z,98.05
2022-10-30T13:37:58.217Z,97.96
2022-10-30T13:40:03.011Z,95.97
2022-10-30T13:42:26.008Z,98.87
2022-10-30T13:44:47.071Z,94.95
2022-10-30T13:47:07.768Z,96.49
2022-10-30T13:49:17.548Z,97.80
2022-10-30T13:51:25.429Z,97.16
2022-10-30T13:53:31.639Z,99.46
2022-10-30T13:55:35.785Z,97.57
2022-10-30T13:57:44.463Z,98.62
2022-10-30T14:00:29.839Z,96.86
2022-10-30T14:02:41.280Z,96.77
2022-10-30T14:05:02.342Z,96.70
2022-10-30T14:07:19.303Z,95.86
2022-10-30T14:09:59.276Z,95.65
2022-10-30T14:12:21.968Z,94.95
2022-10-30T14:14:23.985Z,96.22
2022-10-30T14:16:46.672Z,95.40
2022-10-30T14:19:01.355Z,96.67
2022-10-30T14:21:38.243Z,95.44
2022-10-30T14:23:40.315Z,95.30
2022-10-30T14:25:42.742Z,94.82
2022-10-30T14:27:56.317Z,95.11
2022-10-30T14:29:59.632Z,95.70
2022-10-30T14:32:16.266Z,95.75
2022-10-30T14:34:52.328Z,96.13
2022-10-30T14:36:54.661Z,96.09
2022-10-30T14:39:13.523Z,95.75
2022-10-30T14:41:22.992Z,95.49
2022-10-30T14:44:06.133Z,96.36
2022-10-30T14:46:28.222Z,96.49
2022-10-30T14:48:52.569Z,95.83
2022-10-30T14:51:19.335Z,95.58
2022-10-30T14:53:39.128Z,96.40
2022-10-30T14:56:00.720Z,96.21
2022-10-30T14:58:02.621Z,96.79
2022-10-30T15:00:22.903Z,97.41
2022-10-30T15:02:36.525Z,98.43
2022-10-30T15:05:08.833Z,98.47
2022-10-30T15:07:38.487Z,98.62
2022-10-30T15:10:08.328Z,99.03
2022-10-30T15:12:13.206Z,99.21
2022-10-30T15:14:53.445Z,99.94
2022-10-30T15:16:56.362Z,100.00
2022-10-30T15:19:06.491Z,100.00
2022-10-30T15:21:15.278Z,100.00
2022-10-30T15:23:25.423Z,100.00
2022-10-30T15:25:33.776Z,100.00
2022-10-30T15:27:43.781Z,100.00
2022-10-30T15:29:52.341Z,100.00
2022-10-30T15:32:02.705Z,100.00
2022-10-30T15:34:21.179Z,100.00
2022-10-30T15:36:25.928Z,100.00
2022-10-30T15:38:28.180Z,100.00
2022-10-30T15:40:30.978Z,100.00
2022-10-30T15:42:33.019Z,100.00
2022-10-30T15:44:41.504Z,100.00
2022-10-30T15:46:48.501Z,100.00
2022-10-30T15:48:50.701Z,100.00
2022-10-30T15:51:02.444Z,100.00
2022-10-30T15:53:04.490Z,100.00
2022-10-30T15:55:10.686Z,100.00
2022-10-30T15:57:56.952Z,100.00
2022-10-30T15:59:52.050Z,100.00
2022-10-30T16:01:56.265Z,100.00
2022-10-30T16:03:58.697Z,100.00
2022-10-30T16:06:27.066Z,100.00
2022-10-30T16:08:29.029Z,100.00
2022-10-30T16:10:35.865Z,100.00
2022-10-30T16:12:37.939Z,100.00
2022-10-30T16:14:39.876Z,100.00
2022-10-30T16:16:43.296Z,100.00
2022-10-30T16:18:45.388Z,100.00
2022-10-30T16:20:56.501Z,100.00
2022-10-30T16:22:58.632Z,100.00
2022-10-30T16:25:03.242Z,100.00
2022-10-30T16:27:14.341Z,100.00
2022-10-30T16:29:22.179Z,100.00
2022-10-30T16:31:27.775Z,100.00
2022-10-30T16:33:34.226Z,100.00
2022-10-30T16:35:36.408Z,100.00
2022-10-30T16:37:40.092Z,100.00
2022-10-30T16:39:43.924Z,100.00
2022-10-30T16:41:46.001Z,100.00
2022-10-30T16:44:19.906Z,100.00
2022-10-30T16:46:35.533Z,100.00
2022-10-30T16:48:37.424Z,100.00
2022-10-30T16:50:39.757Z,100.00
2022-10-30T16:52:42.705Z,100.00
2022-10-30T16:55:08.067Z,100.00
2022-10-30T16:57:37.436Z,100.00
2022-10-30T16:59:48.514Z,100.00
2022-10-30T17:01:56.810Z,100.00
2022-10-30T17:04:00.461Z,100.00
2022-10-30T17:06:07.943Z,100.00
2022-10-30T17:08:19.148Z,100.00
2022-10-30T17:10:43.723Z,100.00
2022-10-30T17:12:48.675Z,100.00
2022-10-30T17:15:04.329Z,100.00
2022-10-30T17:17:21.741Z,100.00
2022-10-30T17:19:32.677Z,100.00
2022-10-30T17:21:43.067Z,100.00
2022-10-30T17:24:05.388Z,100.00
2022-10-30T17:26:11.500Z,100.00
2022-10-30T17:28:28.876Z,100.00
2022-10-30T17:30:42.902Z,100.00
2022-10-30T17:32:45.536Z,100.00
2022-10-30T17:34:48.710Z,100.00
2022-10-30T17:36:54.796Z,100.00
2022-10-30T17:38:56.753Z,100.00
2022-10-30T17:40:59.557Z,100.00
2022-10-30T17:43:01.593Z,100.00
2022-10-30T17:45:08.220Z,100.00
2022-10-30T17:47:18.713Z,100.00
2022-10-30T17:49:28.148Z,100.00
2022-10-30T17:51:30.081Z,100.00
2022-10-30T17:53:32.276Z,100.00
2022-10-30T17:55:36.112Z,100.00
2022-10-30T17:57:38.049Z,100.00
2022-10-30T17:59:41.123Z,100.00
2022-10-30T18:01:43.711Z,100.00
2022-10-30T18:03:46.236Z,100.00
2022-10-30T18:05:50.140Z,100.00
2022-10-30T18:07:52.141Z,100.00
2022-10-30T18:09:55.666Z,100.00
2022-10-30T18:11:57.990Z,100.00
2022-10-30T18:14:04.571Z,100.00
2022-10-30T18:16:07.140Z,100.00
2022-10-30T18:18:10.561Z,100.00
2022-10-30T18:20:14.449Z,100.00
2022-10-30T18:22:22.089Z,100.00
2022-10-30T18:24:27.148Z,100.00
2022-10-30T18:26:30.559Z,100.00
2022-10-30T18:28:32.688Z,100.00
2022-10-30T18:30:34.849Z,100.00
2022-10-30T18:32:36.917Z,100.00
2022-10-30T18:34:39.162Z,100.00
2022-10-30T18:36:46.777Z,100.00
2022-10-30T18:38:49.071Z,100.00
2022-10-30T18:40:59.096Z,100.00
2022-10-30T18:43:01.969Z,100.00
2022-10-30T18:45:44.292Z,100.00
2022-10-30T18:47:46.894Z,100.00
2022-10-30T18:49:51.738Z,100.00
2022-10-30T18:51:57.903Z,100.00
2022-10-30T18:54:00.141Z,100.00
2022-10-30T18:56:19.502Z,100.00
2022-10-30T18:58:22.946Z,100.00
2022-10-30T19:00:34.980Z,100.00
2022-10-30T19:02:50.367Z,100.00
2022-10-30T19:04:58.645Z,100.00
2022-10-30T19:07:03.305Z,100.00
2022-10-30T19:09:11.153Z,100.00
2022-10-30T19:11:24.558Z,100.00
2022-10-30T19:13:32.982Z,100.00
2022-10-30T19:15:40.141Z,100.00
2022-10-30T19:17:56.363Z,100.00
2022-10-30T19:20:09.638Z,100.00
2022-10-30T19:22:17.308Z,100.00
2022-10-30T19:24:19.156Z,100.00
2022-10-30T19:26:21.433Z,100.00
2022-10-30T19:28:23.319Z,100.00
2022-10-30T19:33:12.330Z,100.00
2022-10-30T19:35:32.277Z,100.00
2022-10-30T19:38:09.398Z,100.00
2022-10-30T19:40:39.746Z,100.00
2022-10-30T19:42:47.076Z,100.00
2022-10-30T19:44:50.627Z,100.00
2022-10-30T19:46:52.630Z,100.00
2022-10-30T19:48:57.765Z,100.00
2022-10-30T19:51:00.792Z,100.00
2022-10-30T19:53:13.719Z,100.00
2022-10-30T19:55:17.287Z,100.00
2022-10-30T19:59:21.108Z,100.00
2022-10-30T20:01:23.499Z,100.00
2022-10-30T20:03:25.396Z,100.00
2022-10-30T20:05:33.582Z,100.00
2022-10-30T20:08:02.048Z,100.00
2022-10-30T20:10:21.862Z,100.00
2022-10-30T20:12:41.385Z,100.00
2022-10-30T20:17:21.136Z,100.00
2022-10-30T20:22:28.425Z,100.00
2022-10-30T20:24:52.183Z,100.00
2022-10-30T20:29:19.585Z,100.00
2022-10-30T20:31:26.076Z,100.00
2022-10-30T20:33:28.819Z,100.00
2022-10-30T20:35:30.960Z,100.00
2022-10-30T20:37:46.435Z,100.00
2022-10-30T20:40:49.424Z,100.00
2022-10-30T20:42:58.433Z,100.00
2022-10-30T20:45:07.485Z,100.00
2022-10-30T20:47:20.917Z,100.00
2022-10-30T20:49:27.556Z,100.00
2022-10-30T20:51:35.955Z,100.00
2022-10-30T20:53:56.102Z,100.00
2022-10-30T20:59:21.052Z,100.00
2022-10-30T21:01:31.348Z,100.00
2022-10-30T21:03:41.788Z,100.00
2022-10-30T21:06:14.128Z,100.00
2022-10-30T21:08:29.378Z,100.00
2022-10-30T21:10:48.511Z,100.00
2022-10-30T21:13:03.627Z,100.00
2022-10-30T21:15:20.883Z,100.00
2022-10-30T21:17:26.529Z,100.00
2022-10-30T21:19:31.774Z,100.00
2022-10-30T21:21:45.190Z,100.00
2022-10-30T21:23:56.099Z,100.00
2022-10-30T21:26:18.297Z,100.00
2022-10-30T21:28:36.193Z,100.00
2022-10-30T21:31:04.100Z,100.00
2022-10-30T21:33:18.367Z,100.00
2022-10-30T21:35:26.106Z,100.00
2022-10-30T21:42:09.348Z,100.00
2022-10-30T21:44:22.098Z,100.00
2022-10-30T21:46:31.713Z,100.00
2022-10-30T21:48:34.083Z,100.00
2022-10-30T21:50:38.744Z,100.00
2022-10-30T21:52:57.746Z,100.00
2022-10-30T21:55:04.692Z,100.00
2022-10-30T21:57:07.617Z,100.00
2022-10-30T21:59:13.518Z,100.00
2022-10-30T22:01:25.402Z,100.00
2022-10-30T22:03:32.673Z,100.00
2022-10-30T22:05:41.560Z,100.00
2022-10-30T22:07:45.420Z,100.00
2022-10-30T22:09:51.098Z,100.00
2022-10-30T22:11:55.371Z,100.00
2022-10-30T22:14:05.130Z,100.00
2022-10-30T22:18:40.722Z,100.00
2022-10-30T22:20:55.386Z,100.00
2022-10-30T22:23:05.474Z,100.00
2022-10-30T22:25:33.804Z,100.00
2022-10-30T22:27:35.895Z,100.00
2022-10-30T22:29:38.432Z,100.00
2022-10-30T22:32:01.145Z,100.00
2022-10-30T22:34:08.126Z,100.00
2022-10-30T22:36:30.055Z,100.00
2022-10-30T22:38:32.760Z,100.00
2022-10-30T22:40:35.358Z,100.00
2022-10-30T22:42:45.737Z,100.00
2022-10-30T22:44:50.780Z,100.00
2022-10-30T22:46:55.705Z,100.00
2022-10-30T22:48:58.762Z,100.00
2022-10-30T22:51:03.731Z,100.00
2022-10-30T22:53:05.969Z,100.00
2022-10-30T22:55:16.047Z,100.00
2022-10-30T22:57:24.777Z,100.00
2022-10-30T22:59:39.683Z,100.00
2022-10-30T23:01:44.294Z,100.00
2022-10-30T23:03:49.146Z,100.00
2022-10-30T23:05:59.795Z,100.00
2022-10-30T23:08:05.004Z,100.00
2022-10-30T23:10:10.038Z,100.00
2022-10-30T23:12:12.398Z,100.00
2022-10-30T23:14:14.891Z,100.00
2022-10-30T23:16:24.818Z,100.00
2022-10-30T23:20:48.624Z,100.00
2022-10-30T23:23:15.625Z,100.00
2022-10-30T23:25:19.620Z,100.00
2022-10-30T23:27:24.656Z,100.00
2022-10-30T23:29:31.637Z,100.00
2022-10-30T23:31:39.564Z,100.00
2022-10-30T23:33:46.900Z,100.00
2022-10-30T23:36:08.261Z,100.00
2022-10-30T23:38:23.106Z,100.00
2022-10-30T23:40:25.466Z,100.00
2022-10-30T23:42:33.324Z,100.00
2022-10-30T23:44:36.319Z,100.00
2022-10-30T23:46:41.337Z,100.00
2022-10-30T23:48:57.628Z,100.00
2022-10-30T23:51:16.841Z,100.00
2022-10-30T23:53:24.504Z,100.00
2022-10-30T23:55:27.546Z,100.00
2022-10-30T23:57:44.048Z,100.00
2022-10-30T23:59:49.738Z,100.00
